createdAt,value
2017-06-13T00:01:50.947Z,56.20
2017-06-13T00:04:18.470Z,56.20
2017-06-13T00:06:45.967Z,55.60
2017-06-13T00:09:14.231Z,56.20
2017-06-13T00:11:41.754Z,56.20
2017-06-13T00:14:09.289Z,55.70
2017-06-13T00:16:36.811Z,56.00
2017-06-13T00:19:04.313Z,55.40
2017-06-13T00:21:31.816Z,55.40
2017-06-13T00:23:59.335Z,54.70
2017-06-13T00:26:26.835Z,54.70
2017-06-13T00:28:54.359Z,54.70
2017-06-13T00:31:21.859Z,54.10
2017-06-13T00:33:49.363Z,53.90
2017-06-13T00:36:16.881Z,54.10
2017-06-13T00:38:44.391Z,54.50
2017-06-13T00:41:11.928Z,54.50
2017-06-13T00:43:39.426Z,54.70
2017-06-13T00:46:06.927Z,54.50
2017-06-13T00:48:34.451Z,53.90
2017-06-13T00:51:01.956Z,54.40
2017-06-13T00:53:29.480Z,54.50
2017-06-13T00:55:56.988Z,54.60
2017-06-13T00:58:24.486Z,55.20
2017-06-13T01:00:52.007Z,55.20
2017-06-13T01:03:19.508Z,55.10
2017-06-13T01:05:47.032Z,55.30
2017-06-13T01:08:14.535Z,54.60
2017-06-13T01:10:42.803Z,55.60
2017-06-13T01:13:10.323Z,55.50
2017-06-13T01:15:37.823Z,54.70
2017-06-13T01:18:05.342Z,54.60
2017-06-13T01:20:32.843Z,54.70
2017-06-13T01:23:00.347Z,55.50
2017-06-13T01:25:27.871Z,55.70
2017-06-13T01:27:55.371Z,54.60
2017-06-13T01:30:22.894Z,55.30
2017-06-13T01:32:50.398Z,55.50
2017-06-13T01:35:17.902Z,55.90
2017-06-13T01:37:45.425Z,55.30
2017-06-13T01:40:12.923Z,55.70
2017-06-13T01:42:40.447Z,56.00
2017-06-13T01:45:07.952Z,55.30
2017-06-13T01:47:35.446Z,55.10
2017-06-13T01:50:02.967Z,55.40
2017-06-13T01:52:30.483Z,55.20
2017-06-13T01:54:58.006Z,55.20
2017-06-13T01:57:25.511Z,55.50
2017-06-13T01:59:53.015Z,55.40
2017-06-13T02:02:20.539Z,55.80
2017-06-13T02:04:48.043Z,56.20
2017-06-13T02:07:15.579Z,56.30
2017-06-13T02:09:43.087Z,56.30
2017-06-13T02:12:10.587Z,56.40
2017-06-13T02:14:38.106Z,57.10
2017-06-13T02:17:05.603Z,57.80
2017-06-13T02:19:33.127Z,57.20
2017-06-13T02:22:00.627Z,57.80
2017-06-13T02:24:28.125Z,58.50
2017-06-13T02:26:55.638Z,58.50
2017-06-13T02:29:23.144Z,58.60
2017-06-13T02:31:50.672Z,58.20
2017-06-13T02:34:18.175Z,59.10
2017-06-13T02:36:45.679Z,58.50
2017-06-13T02:39:13.195Z,58.50
2017-06-13T02:41:40.703Z,58.10
2017-06-13T02:44:08.226Z,58.20
2017-06-13T02:46:35.731Z,57.90
2017-06-13T02:49:03.235Z,58.20
2017-06-13T02:51:31.519Z,58.10
2017-06-13T02:53:59.018Z,57.70
2017-06-13T02:56:26.549Z,57.40
2017-06-13T02:58:54.051Z,58.30
2017-06-13T03:01:21.553Z,58.50
2017-06-13T03:03:49.071Z,58.80
2017-06-13T03:06:16.580Z,60.00
2017-06-13T03:08:44.103Z,59.70
2017-06-13T03:11:11.602Z,59.40
2017-06-13T03:13:39.099Z,58.70
2017-06-13T03:16:06.616Z,58.90
2017-06-13T03:18:34.118Z,59.50
2017-06-13T03:21:01.654Z,58.90
2017-06-13T03:23:29.159Z,58.60
2017-06-13T03:25:56.660Z,59.20
2017-06-13T03:28:24.179Z,60.00
2017-06-13T03:30:52.451Z,59.90
2017-06-13T03:33:19.977Z,59.70
2017-06-13T03:35:47.480Z,60.30
2017-06-13T03:38:15.750Z,59.90
2017-06-13T03:40:44.035Z,60.00
2017-06-13T03:43:12.303Z,58.90
2017-06-13T03:45:40.602Z,58.80
2017-06-13T03:48:08.103Z,58.80
2017-06-13T03:50:35.610Z,58.90
2017-06-13T03:53:03.132Z,59.60
2017-06-13T03:55:30.634Z,59.10
2017-06-13T03:57:58.159Z,59.10
2017-06-13T04:00:25.659Z,59.20
2017-06-13T04:02:53.163Z,58.80
2017-06-13T04:05:20.684Z,59.50
2017-06-13T04:07:48.187Z,59.20
2017-06-13T04:10:15.711Z,59.90
2017-06-13T04:12:43.214Z,60.10
2017-06-13T04:15:10.720Z,58.90
2017-06-13T04:17:38.243Z,59.90
2017-06-13T04:20:05.743Z,59.50
2017-06-13T04:22:33.271Z,60.40
2017-06-13T04:25:00.776Z,60.60
2017-06-13T04:27:28.279Z,61.00
2017-06-13T04:29:55.792Z,59.00
2017-06-13T04:32:23.296Z,59.60
2017-06-13T04:34:50.819Z,60.00
2017-06-13T04:37:18.320Z,59.60
2017-06-13T04:39:45.822Z,58.50
2017-06-13T04:42:13.343Z,59.70
2017-06-13T04:44:40.851Z,59.60
2017-06-13T04:47:08.387Z,59.90
2017-06-13T04:49:35.895Z,60.60
2017-06-13T04:52:03.394Z,61.00
2017-06-13T04:54:30.911Z,62.50
2017-06-13T04:56:59.174Z,64.00
2017-06-13T04:59:26.700Z,64.00
2017-06-13T05:01:54.203Z,63.30
2017-06-13T05:04:21.703Z,63.20
2017-06-13T05:06:49.222Z,62.00
2017-06-13T05:09:16.718Z,61.30
2017-06-13T05:11:44.243Z,61.10
2017-06-13T05:14:11.743Z,62.80
2017-06-13T05:16:39.246Z,61.30
2017-06-13T05:19:07.535Z,61.70
2017-06-13T05:21:35.042Z,61.50
2017-06-13T05:24:02.567Z,62.90
2017-06-13T05:26:30.076Z,60.70
2017-06-13T05:28:57.584Z,59.30
2017-06-13T05:31:25.112Z,59.80
2017-06-13T05:33:53.384Z,59.30
2017-06-13T05:36:20.916Z,59.20
2017-06-13T05:38:48.424Z,59.80
2017-06-13T05:41:15.945Z,59.20
2017-06-13T05:43:43.473Z,58.60
2017-06-13T05:46:10.984Z,57.80
2017-06-13T05:48:38.513Z,57.80
2017-06-13T05:51:06.016Z,56.70
2017-06-13T05:53:33.527Z,57.50
2017-06-13T05:56:01.052Z,57.30
2017-06-13T05:58:28.564Z,57.00
2017-06-13T06:00:56.099Z,55.20
2017-06-13T06:03:23.603Z,55.60
2017-06-13T06:05:51.116Z,54.60
2017-06-13T06:08:18.639Z,54.60
2017-06-13T06:10:46.148Z,55.30
2017-06-13T06:13:13.665Z,56.20
2017-06-13T06:15:41.178Z,56.00
2017-06-13T06:18:09.451Z,57.50
2017-06-13T06:20:36.975Z,57.50
2017-06-13T06:23:04.475Z,56.60
2017-06-13T06:25:32.020Z,57.10
2017-06-13T06:27:59.524Z,54.30
2017-06-13T06:30:27.032Z,54.80
2017-06-13T06:32:54.555Z,53.60
2017-06-13T06:35:22.055Z,54.10
2017-06-13T06:37:49.575Z,53.40
2017-06-13T06:40:17.076Z,54.90
2017-06-13T06:42:44.576Z,52.00
2017-06-13T06:45:12.095Z,52.70
2017-06-13T06:47:40.363Z,53.50
2017-06-13T06:50:07.886Z,53.40
2017-06-13T06:52:35.384Z,54.40
2017-06-13T06:55:02.895Z,55.60
2017-06-13T06:57:30.419Z,56.10
2017-06-13T06:59:57.920Z,55.90
2017-06-13T07:02:25.442Z,56.10
2017-06-13T07:04:52.940Z,54.40
2017-06-13T07:07:20.444Z,54.70
2017-06-13T07:09:48.723Z,52.30
2017-06-13T07:12:16.987Z,53.40
2017-06-13T07:14:44.515Z,53.40
2017-06-13T07:17:12.011Z,54.00
2017-06-13T07:19:40.279Z,52.10
2017-06-13T07:22:07.799Z,52.00
2017-06-13T07:24:35.303Z,51.80
2017-06-13T07:27:03.595Z,52.70
2017-06-13T07:29:31.099Z,52.60
2017-06-13T07:31:58.598Z,54.50
2017-06-13T07:34:26.886Z,53.60
2017-06-13T07:36:54.391Z,53.60
2017-06-13T07:39:21.916Z,53.70
2017-06-13T07:41:49.418Z,53.00
2017-06-13T07:44:16.920Z,51.10
2017-06-13T07:46:44.441Z,52.00
2017-06-13T07:49:11.947Z,51.30
2017-06-13T07:51:39.473Z,51.00
2017-06-13T07:54:07.743Z,48.40
2017-06-13T07:56:35.250Z,48.30
2017-06-13T07:59:02.771Z,47.70
2017-06-13T08:01:31.049Z,50.70
2017-06-13T08:03:58.575Z,50.60
2017-06-13T08:06:26.075Z,48.40
2017-06-13T08:08:53.575Z,50.70
2017-06-13T08:11:21.095Z,49.20
2017-06-13T08:13:48.615Z,48.70
2017-06-13T08:16:16.139Z,47.00
2017-06-13T08:18:43.646Z,48.10
2017-06-13T08:21:11.915Z,46.30
2017-06-13T08:23:39.436Z,46.20
2017-06-13T08:26:06.935Z,47.40
2017-06-13T08:28:34.460Z,47.30
2017-06-13T08:31:01.960Z,47.80
2017-06-13T08:33:30.227Z,47.80
2017-06-13T08:35:58.515Z,47.30
2017-06-13T08:38:26.784Z,48.40
2017-06-13T08:40:55.076Z,46.90
2017-06-13T08:43:22.583Z,46.80
2017-06-13T08:45:50.086Z,48.60
2017-06-13T08:48:17.611Z,50.60
2017-06-13T08:50:45.115Z,48.90
2017-06-13T08:53:12.640Z,48.30
2017-06-13T08:55:40.139Z,50.50
2017-06-13T08:58:07.651Z,47.90
2017-06-13T09:00:35.167Z,48.50
2017-06-13T09:03:02.672Z,47.60
2017-06-13T09:05:30.200Z,47.60
2017-06-13T09:07:57.698Z,48.10
2017-06-13T09:10:25.972Z,46.60
2017-06-13T09:12:54.264Z,47.70
2017-06-13T09:15:21.768Z,47.50
2017-06-13T09:17:49.299Z,45.70
2017-06-13T09:20:16.803Z,46.60
2017-06-13T09:22:44.303Z,46.60
2017-06-13T09:25:11.823Z,48.40
2017-06-13T09:27:39.323Z,46.30
2017-06-13T09:30:06.844Z,47.10
2017-06-13T09:32:34.352Z,46.50
2017-06-13T09:35:01.875Z,45.70
2017-06-13T09:37:30.144Z,45.70
2017-06-13T09:39:57.653Z,45.70
2017-06-13T09:42:25.176Z,44.40
2017-06-13T09:44:52.675Z,45.00
2017-06-13T09:47:20.207Z,47.10
2017-06-13T09:49:47.716Z,45.70
2017-06-13T09:52:15.256Z,48.00
2017-06-13T09:54:42.759Z,44.20
2017-06-13T09:57:11.036Z,45.00
2017-06-13T09:59:39.323Z,47.60
2017-06-13T10:02:06.831Z,47.70
2017-06-13T10:04:34.359Z,45.10
2017-06-13T10:07:01.871Z,42.80
2017-06-13T10:09:29.377Z,43.80
2017-06-13T10:11:56.891Z,45.40
2017-06-13T10:14:25.167Z,47.10
2017-06-13T10:16:52.689Z,47.60
2017-06-13T10:19:20.187Z,46.60
2017-06-13T10:21:48.467Z,45.50
2017-06-13T10:24:16.755Z,45.40
2017-06-13T10:26:45.024Z,46.00
2017-06-13T10:29:13.331Z,46.00
2017-06-13T10:31:40.835Z,46.00
2017-06-13T10:34:08.340Z,45.80
2017-06-13T10:36:35.855Z,45.80
2017-06-13T10:39:03.360Z,47.70
2017-06-13T10:41:30.879Z,45.70
2017-06-13T10:43:58.389Z,46.80
2017-06-13T10:46:25.898Z,48.30
2017-06-13T10:48:53.419Z,47.60
2017-06-13T10:51:20.928Z,48.40
2017-06-13T10:53:49.227Z,46.40
2017-06-13T10:56:16.739Z,46.40
2017-06-13T10:58:44.242Z,44.60
2017-06-13T11:01:11.771Z,45.50
2017-06-13T11:03:40.043Z,47.20
2017-06-13T11:06:08.335Z,48.60
2017-06-13T11:08:36.603Z,45.00
2017-06-13T11:11:04.111Z,44.90
2017-06-13T11:13:31.636Z,47.80
2017-06-13T11:15:59.139Z,47.60
2017-06-13T11:18:26.668Z,47.00
2017-06-13T11:20:54.171Z,48.20
2017-06-13T11:23:21.675Z,48.90
2017-06-13T11:25:49.205Z,46.80
2017-06-13T11:28:16.707Z,47.50
2017-06-13T11:30:44.243Z,48.20
2017-06-13T11:33:11.748Z,46.10
2017-06-13T11:35:39.254Z,48.90
2017-06-13T11:38:07.540Z,48.00
2017-06-13T11:40:35.052Z,48.00
2017-06-13T11:43:02.587Z,48.00
2017-06-13T11:45:30.091Z,47.30
2017-06-13T11:47:58.364Z,47.50
2017-06-13T11:50:26.651Z,48.60
2017-06-13T11:52:54.923Z,46.90
2017-06-13T11:55:23.214Z,47.00
2017-06-13T11:57:50.732Z,46.90
2017-06-13T12:00:18.243Z,47.40
2017-06-13T12:02:45.771Z,47.20
2017-06-13T12:05:14.044Z,47.30
2017-06-13T12:07:42.336Z,47.50
2017-06-13T12:10:09.837Z,47.50
2017-06-13T12:12:37.344Z,47.80
2017-06-13T12:15:05.633Z,49.70
2017-06-13T12:17:33.152Z,49.60
2017-06-13T12:20:00.681Z,50.00
2017-06-13T12:22:28.192Z,46.40
2017-06-13T12:24:55.694Z,48.70
2017-06-13T12:27:23.211Z,48.80
2017-06-13T12:29:50.720Z,47.30
2017-06-13T12:32:18.243Z,48.40
2017-06-13T12:34:45.747Z,48.10
2017-06-13T12:37:13.252Z,48.40
2017-06-13T12:39:40.778Z,47.00
2017-06-13T12:42:08.279Z,48.80
2017-06-13T12:44:35.819Z,45.40
2017-06-13T12:47:04.091Z,47.40
2017-06-13T12:49:32.367Z,46.30
2017-06-13T12:52:00.650Z,47.00
2017-06-13T12:54:28.915Z,45.80
2017-06-13T12:56:57.211Z,46.20
2017-06-13T12:59:24.712Z,46.20
2017-06-13T13:01:52.222Z,47.40
2017-06-13T13:04:19.747Z,49.80
2017-06-13T13:06:47.251Z,44.00
2017-06-13T13:09:14.783Z,45.20
2017-06-13T13:11:43.051Z,43.20
2017-06-13T13:14:10.553Z,43.30
2017-06-13T13:16:38.075Z,44.10
2017-06-13T13:19:06.346Z,42.90
2017-06-13T13:21:34.065Z,42.80
2017-06-13T13:24:01.571Z,43.00
2017-06-13T13:26:29.843Z,43.00
2017-06-13T13:28:58.130Z,44.20
2017-06-13T13:31:25.647Z,43.80
2017-06-13T13:33:53.179Z,44.00
2017-06-13T13:36:20.691Z,40.20
2017-06-13T13:38:48.195Z,39.80
2017-06-13T13:41:15.724Z,39.70
2017-06-13T13:43:43.999Z,42.80
2017-06-13T13:46:12.296Z,42.90
2017-06-13T13:48:39.803Z,42.80
2017-06-13T13:51:07.314Z,41.50
2017-06-13T13:53:34.856Z,41.30
2017-06-13T13:56:03.127Z,40.90
2017-06-13T13:58:31.412Z,43.40
2017-06-13T14:00:58.916Z,43.50
2017-06-13T14:03:26.427Z,44.70
2017-06-13T14:05:53.957Z,42.10
2017-06-13T14:08:21.471Z,40.30
2017-06-13T14:10:49.004Z,38.20
2017-06-13T14:13:16.507Z,38.50
2017-06-13T14:15:44.007Z,40.70
2017-06-13T14:18:12.295Z,41.00
2017-06-13T14:20:39.799Z,41.00
2017-06-13T14:23:07.327Z,38.50
2017-06-13T14:25:34.839Z,39.10
2017-06-13T14:28:02.342Z,36.50
2017-06-13T14:30:29.864Z,38.70
2017-06-13T14:32:57.371Z,38.00
2017-06-13T14:35:24.899Z,37.40
2017-06-13T14:37:53.175Z,38.30
2017-06-13T14:40:21.443Z,37.40
2017-06-13T14:42:49.731Z,38.20
2017-06-13T14:45:17.251Z,38.20
2017-06-13T14:47:44.782Z,38.00
2017-06-13T14:50:12.323Z,36.90
2017-06-13T14:52:39.827Z,37.20
2017-06-13T14:55:07.349Z,37.40
2017-06-13T14:57:34.854Z,36.50
2017-06-13T15:00:02.380Z,38.20
2017-06-13T15:02:29.879Z,38.20
2017-06-13T15:04:58.148Z,37.80
2017-06-13T15:07:25.674Z,38.30
2017-06-13T15:09:53.174Z,36.70
2017-06-13T15:12:21.466Z,40.10
2017-06-13T15:14:48.975Z,40.10
2017-06-13T15:17:16.478Z,38.10
2017-06-13T15:19:44.769Z,37.50
2017-06-13T15:22:12.275Z,37.40
2017-06-13T15:24:39.799Z,37.80
2017-06-13T15:27:07.304Z,37.70
2017-06-13T15:29:34.811Z,38.80
2017-06-13T15:32:02.331Z,38.40
2017-06-13T15:34:29.831Z,39.90
2017-06-13T15:36:57.360Z,38.70
2017-06-13T15:39:25.631Z,39.40
2017-06-13T15:41:53.903Z,41.10
2017-06-13T15:44:22.196Z,37.90
2017-06-13T15:46:49.699Z,37.90
2017-06-13T15:49:17.232Z,37.20
2017-06-13T15:51:44.743Z,38.00
2017-06-13T15:54:12.243Z,40.30
2017-06-13T15:56:39.768Z,38.20
2017-06-13T15:59:08.040Z,40.60
2017-06-13T16:01:36.318Z,40.00
2017-06-13T16:04:03.839Z,39.90
2017-06-13T16:06:31.339Z,38.70
2017-06-13T16:08:58.875Z,37.90
2017-06-13T16:11:26.379Z,39.90
2017-06-13T16:13:53.886Z,39.00
2017-06-13T16:16:21.411Z,37.60
2017-06-13T16:18:48.911Z,37.20
2017-06-13T16:21:16.421Z,38.50
2017-06-13T16:23:43.946Z,37.30
2017-06-13T16:26:12.215Z,38.00
2017-06-13T16:28:39.722Z,38.00
2017-06-13T16:31:07.252Z,37.80
2017-06-13T16:33:34.755Z,41.30
2017-06-13T16:36:02.257Z,40.10
2017-06-13T16:38:30.552Z,40.20
2017-06-13T16:40:58.056Z,40.20
2017-06-13T16:43:25.567Z,40.50
2017-06-13T16:45:53.091Z,40.00
2017-06-13T16:48:20.596Z,41.00
2017-06-13T16:50:48.099Z,40.80
2017-06-13T16:53:15.630Z,40.60
2017-06-13T16:55:43.127Z,42.70
2017-06-13T16:58:10.635Z,41.40
2017-06-13T17:00:38.159Z,41.90
2017-06-13T17:03:06.431Z,41.80
2017-06-13T17:05:34.702Z,42.90
2017-06-13T17:08:03.008Z,41.60
2017-06-13T17:10:30.511Z,41.60
2017-06-13T17:12:58.016Z,42.80
2017-06-13T17:15:25.543Z,42.60
2017-06-13T17:17:53.043Z,43.50
2017-06-13T17:20:20.547Z,43.50
2017-06-13T17:22:48.075Z,43.50
2017-06-13T17:25:15.575Z,43.10
2017-06-13T17:27:43.076Z,43.10
2017-06-13T17:30:10.602Z,43.40
2017-06-13T17:32:38.871Z,43.60
2017-06-13T17:35:06.403Z,43.60
2017-06-13T17:37:33.913Z,46.20
2017-06-13T17:40:01.415Z,44.10
2017-06-13T17:42:28.935Z,44.30
2017-06-13T17:44:56.448Z,44.30
2017-06-13T17:47:23.953Z,44.70
2017-06-13T17:49:51.471Z,44.40
2017-06-13T17:52:18.972Z,45.10
2017-06-13T17:54:46.499Z,45.60
2017-06-13T17:57:14.768Z,46.90
2017-06-13T17:59:42.279Z,46.50
2017-06-13T18:02:09.811Z,45.90
2017-06-13T18:04:37.315Z,47.10
2017-06-13T18:07:04.819Z,47.80
2017-06-13T18:09:33.109Z,48.60
2017-06-13T18:12:00.606Z,48.60
2017-06-13T18:14:28.107Z,49.20
2017-06-13T18:16:56.394Z,49.40
2017-06-13T18:19:23.899Z,49.40
2017-06-13T18:21:51.423Z,50.50
2017-06-13T18:24:18.928Z,50.60
2017-06-13T18:26:46.436Z,51.00
2017-06-13T18:29:13.955Z,52.00
2017-06-13T18:31:41.456Z,53.50
2017-06-13T18:34:08.959Z,52.10
2017-06-13T18:36:36.479Z,52.60
2017-06-13T18:39:03.992Z,51.70
2017-06-13T18:41:31.495Z,52.00
2017-06-13T18:43:59.026Z,52.50
2017-06-13T18:46:27.295Z,53.00
2017-06-13T18:48:54.799Z,53.00
2017-06-13T18:51:22.326Z,53.90
2017-06-13T18:53:49.832Z,54.70
2017-06-13T18:56:17.330Z,55.90
2017-06-13T18:58:44.855Z,56.60
2017-06-13T19:01:12.355Z,56.50
2017-06-13T19:03:39.859Z,57.30
2017-06-13T19:06:07.382Z,58.30
2017-06-13T19:08:34.880Z,55.50
2017-06-13T19:11:02.388Z,58.40
2017-06-13T19:13:29.911Z,57.90
2017-06-13T19:15:57.418Z,58.80
2017-06-13T19:18:24.919Z,57.70
2017-06-13T19:20:52.434Z,57.60
2017-06-13T19:23:19.944Z,58.10
2017-06-13T19:25:47.447Z,59.00
2017-06-13T19:28:14.988Z,58.70
2017-06-13T19:30:42.496Z,59.90
2017-06-13T19:33:09.998Z,58.80
2017-06-13T19:35:37.527Z,58.50
2017-06-13T19:38:05.028Z,58.80
2017-06-13T19:40:32.531Z,59.30
2017-06-13T19:43:00.059Z,59.20
2017-06-13T19:45:27.563Z,58.50
2017-06-13T19:47:55.067Z,59.70
2017-06-13T19:50:22.583Z,59.20
2017-06-13T19:52:50.086Z,58.80
2017-06-13T19:55:17.607Z,58.40
2017-06-13T19:57:45.116Z,59.80
2017-06-13T20:00:12.619Z,59.40
2017-06-13T20:02:40.139Z,59.20
2017-06-13T20:05:07.643Z,60.10
2017-06-13T20:07:35.148Z,61.60
2017-06-13T20:10:02.675Z,62.70
2017-06-13T20:12:30.180Z,62.60
2017-06-13T20:14:57.679Z,62.90
2017-06-13T20:17:25.207Z,63.10
2017-06-13T20:19:52.715Z,63.40
2017-06-13T20:22:20.224Z,63.60
2017-06-13T20:24:47.745Z,64.60
2017-06-13T20:27:21.011Z,66.00
2017-06-13T20:29:49.300Z,67.40
2017-06-13T20:32:17.567Z,67.00
2017-06-13T20:34:45.843Z,66.50
2017-06-13T20:37:14.135Z,65.70
2017-06-13T20:39:41.639Z,65.70
2017-06-13T20:42:10.158Z,62.80
2017-06-13T20:44:37.684Z,63.10
2017-06-13T20:47:05.187Z,66.10
2017-06-13T20:49:32.687Z,67.70
2017-06-13T20:52:00.211Z,67.00
2017-06-13T20:54:27.715Z,68.00
2017-06-13T20:56:55.219Z,68.00
2017-06-13T20:59:23.515Z,67.50
2017-06-13T21:01:51.029Z,67.30
2017-06-13T21:04:18.536Z,69.00
2017-06-13T21:06:46.067Z,68.00
2017-06-13T21:09:13.567Z,66.50
2017-06-13T21:11:41.074Z,66.40
2017-06-13T21:14:09.381Z,69.20
2017-06-13T21:16:36.883Z,69.20
2017-06-13T21:19:04.379Z,70.10
2017-06-13T21:21:32.671Z,70.60
2017-06-13T21:24:00.179Z,70.60
2017-06-13T21:26:27.682Z,70.70
2017-06-13T21:28:55.200Z,69.80
2017-06-13T21:31:22.703Z,69.70
2017-06-13T21:33:50.207Z,69.40
2017-06-13T21:36:17.735Z,68.80
2017-06-13T21:38:45.235Z,70.30
2017-06-13T21:41:12.747Z,69.30
2017-06-13T21:43:40.270Z,70.40
2017-06-13T21:46:07.778Z,70.50
2017-06-13T21:48:35.279Z,71.10
2017-06-13T21:51:03.572Z,70.50
2017-06-13T21:53:31.071Z,70.40
2017-06-13T21:55:58.575Z,70.30
2017-06-13T21:58:26.871Z,69.50
2017-06-13T22:00:54.376Z,69.40
2017-06-13T22:03:21.875Z,69.00
2017-06-13T22:05:49.399Z,68.90
2017-06-13T22:08:16.904Z,69.70
2017-06-13T22:10:44.403Z,70.00
2017-06-13T22:13:11.927Z,69.50
2017-06-13T22:15:39.434Z,69.20
2017-06-13T22:18:06.935Z,69.60
2017-06-13T22:20:34.471Z,70.10
2017-06-13T22:23:01.976Z,70.20
2017-06-13T22:25:29.479Z,70.10
2017-06-13T22:27:57.003Z,70.40
2017-06-13T22:30:24.508Z,69.70
2017-06-13T22:32:52.014Z,70.20
2017-06-13T22:35:19.540Z,70.40
2017-06-13T22:37:47.062Z,70.60
2017-06-13T22:40:14.567Z,70.20
2017-06-13T22:42:42.095Z,70.10
2017-06-13T22:45:10.363Z,69.90
2017-06-13T22:47:38.635Z,69.50
2017-06-13T22:50:06.159Z,69.90
2017-06-13T22:52:33.695Z,70.30
2017-06-13T22:55:01.200Z,71.40
2017-06-13T22:57:28.719Z,73.20
2017-06-13T22:59:56.223Z,72.30
2017-06-13T23:02:23.757Z,72.60
2017-06-13T23:04:51.259Z,72.50
2017-06-13T23:07:19.528Z,71.60
2017-06-13T23:09:47.072Z,72.30
2017-06-13T23:12:14.575Z,71.30
2017-06-13T23:14:42.900Z,71.00
2017-06-13T23:17:10.427Z,71.30
2017-06-13T23:19:37.935Z,71.80
2017-06-13T23:22:06.207Z,70.70
2017-06-13T23:24:33.735Z,70.50
2017-06-13T23:27:01.238Z,71.70
2017-06-13T23:29:29.508Z,73.30
2017-06-13T23:31:57.037Z,73.30
2017-06-13T23:34:24.539Z,73.60
2017-06-13T23:36:52.048Z,72.70
2017-06-13T23:39:19.572Z,72.90
2017-06-13T23:41:47.078Z,71.80
2017-06-13T23:44:14.583Z,72.20
2017-06-13T23:46:42.116Z,72.90
2017-06-13T23:49:09.623Z,72.30
2017-06-13T23:51:37.126Z,71.90
2017-06-13T23:54:05.436Z,72.10
2017-06-13T23:56:32.943Z,71.70
2017-06-13T23:59:00.446Z,71.30
